createdAt,value
2023-04-22T00:00:15.579Z,10.34
2023-04-22T00:02:44.459Z,10.33
2023-04-22T00:05:15.648Z,10.33
2023-04-22T00:07:45.011Z,10.30
2023-04-22T00:10:13.136Z,10.29
2023-04-22T00:12:41.084Z,10.30
2023-04-22T00:15:11.680Z,10.24
2023-04-22T00:17:40.179Z,10.20
2023-04-22T00:20:10.830Z,10.20
2023-04-22T00:22:38.690Z,10.19
2023-04-22T00:25:07.533Z,10.15
2023-04-22T00:27:35.451Z,10.15
2023-04-22T00:30:03.610Z,10.13
2023-04-22T00:32:32.971Z,10.08
2023-04-22T00:35:01.022Z,10.06
2023-04-22T00:37:29.316Z,10.07
2023-04-22T00:39:57.956Z,10.05
2023-04-22T00:42:27.136Z,10.04
2023-04-22T00:44:55.321Z,9.99
2023-04-22T00:47:26.825Z,10.01
2023-04-22T00:49:56.343Z,9.95
2023-04-22T00:52:24.529Z,9.95
2023-04-22T00:54:53.124Z,9.97
2023-04-22T00:57:21.392Z,9.92
2023-04-22T00:59:50.378Z,9.90
2023-04-22T01:02:19.240Z,9.90
2023-04-22T01:04:47.831Z,9.86
2023-04-22T01:07:17.076Z,9.84
2023-04-22T01:09:44.959Z,9.84
2023-04-22T01:12:12.876Z,9.82
2023-04-22T01:14:41.534Z,9.83
2023-04-22T01:17:12.087Z,9.82
2023-04-22T01:19:41.354Z,9.80
2023-04-22T01:22:12.404Z,9.73
2023-04-22T01:24:42.128Z,9.75
2023-04-22T01:27:10.308Z,9.74
2023-04-22T01:29:39.518Z,9.73
2023-04-22T01:32:08.041Z,9.71
2023-04-22T01:34:35.964Z,9.71
2023-04-22T01:37:03.879Z,9.66
2023-04-22T01:39:31.972Z,9.63
2023-04-22T01:42:02.201Z,9.62
2023-04-22T01:44:30.223Z,9.63
2023-04-22T01:46:57.971Z,9.64
2023-04-22T01:49:25.842Z,9.57
2023-04-22T01:51:53.640Z,9.57
2023-04-22T01:54:21.994Z,9.55
2023-04-22T01:56:52.952Z,9.49
2023-04-22T01:59:22.796Z,9.48
2023-04-22T02:01:51.513Z,9.48
2023-04-22T02:04:20.036Z,9.46
2023-04-22T02:06:47.859Z,9.46
2023-04-22T02:09:15.719Z,9.43
2023-04-22T02:11:43.851Z,9.42
2023-04-22T02:14:11.774Z,9.42
2023-04-22T02:16:41.813Z,9.40
2023-04-22T02:19:09.917Z,9.42
2023-04-22T02:21:37.791Z,9.40
2023-04-22T02:24:05.859Z,9.38
2023-04-22T02:26:33.700Z,9.37
2023-04-22T02:29:02.190Z,9.36
2023-04-22T02:31:30.087Z,9.34
2023-04-22T02:33:59.822Z,9.33
2023-04-22T02:36:28.784Z,9.29
2023-04-22T02:38:57.390Z,9.30
2023-04-22T02:41:25.550Z,9.27
2023-04-22T02:43:53.725Z,9.27
2023-04-22T02:46:22.012Z,9.25
2023-04-22T02:48:50.443Z,9.25
2023-04-22T02:51:19.795Z,9.24
2023-04-22T02:53:47.667Z,9.23
2023-04-22T02:56:15.537Z,9.20
2023-04-22T02:58:43.565Z,9.18
2023-04-22T03:01:11.752Z,9.19
2023-04-22T03:03:40.095Z,9.12
2023-04-22T03:06:11.278Z,9.07
2023-04-22T03:08:40.586Z,9.07
2023-04-22T03:11:08.525Z,9.06
2023-04-22T03:13:36.379Z,9.02
2023-04-22T03:16:04.389Z,9.07
2023-04-22T03:18:33.125Z,8.98
2023-04-22T03:21:01.261Z,8.95
2023-04-22T03:23:29.764Z,8.92
2023-04-22T03:25:59.016Z,8.92
2023-04-22T03:28:27.153Z,8.87
2023-04-22T03:30:55.168Z,8.84
2023-04-22T03:33:23.411Z,8.81
2023-04-22T03:35:56.667Z,8.77
2023-04-22T03:38:25.793Z,8.75
2023-04-22T03:40:53.905Z,8.73
2023-04-22T03:43:37.302Z,8.69
2023-04-22T03:46:09.172Z,8.71
2023-04-22T03:48:41.115Z,8.65
2023-04-22T03:51:20.031Z,8.66
2023-04-22T03:53:48.564Z,8.65
2023-04-22T03:56:21.159Z,8.67
2023-04-22T03:58:52.004Z,8.67
2023-04-22T04:01:20.085Z,8.64
2023-04-22T04:03:52.093Z,8.65
2023-04-22T04:06:21.772Z,8.65
2023-04-22T04:08:49.734Z,8.65
2023-04-22T04:11:17.823Z,8.65
2023-04-22T04:13:46.985Z,8.61
2023-04-22T04:16:20.875Z,8.63
2023-04-22T04:18:54.860Z,8.61
2023-04-22T04:21:24.605Z,8.62
2023-04-22T04:23:53.864Z,8.59
2023-04-22T04:26:27.506Z,8.55
2023-04-22T04:29:02.694Z,8.54
2023-04-22T04:31:32.415Z,8.55
2023-04-22T04:34:00.983Z,8.55
2023-04-22T04:36:29.460Z,8.58
2023-04-22T04:39:06.765Z,8.56
2023-04-22T04:41:35.617Z,8.55
2023-04-22T04:44:04.761Z,8.52
2023-04-22T04:46:37.776Z,8.50
2023-04-22T04:49:06.238Z,8.49
2023-04-22T04:51:41.302Z,8.47
2023-04-22T04:54:09.333Z,8.46
2023-04-22T04:56:40.685Z,8.48
2023-04-22T04:59:10.484Z,8.44
2023-04-22T05:01:41.615Z,8.43
2023-04-22T05:04:12.983Z,8.44
2023-04-22T05:06:43.012Z,8.46
2023-04-22T05:09:11.138Z,8.44
2023-04-22T05:11:39.081Z,8.46
2023-04-22T05:14:14.158Z,8.44
2023-04-22T05:16:45.502Z,8.47
2023-04-22T05:19:14.451Z,8.48
2023-04-22T05:21:43.893Z,8.44
2023-04-22T05:24:12.546Z,8.43
2023-04-22T05:26:40.505Z,8.44
2023-04-22T05:29:15.077Z,8.46
2023-04-22T05:31:43.165Z,8.49
2023-04-22T05:34:13.124Z,8.52
2023-04-22T05:36:41.592Z,8.52
2023-04-22T05:39:09.882Z,8.57
2023-04-22T05:41:37.745Z,8.61
2023-04-22T05:44:09.721Z,8.62
2023-04-22T05:46:37.697Z,8.66
2023-04-22T05:49:06.552Z,8.70
2023-04-22T05:51:55.729Z,8.75
2023-04-22T05:54:28.198Z,8.79
2023-04-22T05:56:56.950Z,8.83
2023-04-22T05:59:26.504Z,8.91
2023-04-22T06:01:54.691Z,8.96
2023-04-22T06:04:23.020Z,9.02
2023-04-22T06:06:53.761Z,9.09
2023-04-22T06:09:23.399Z,9.14
2023-04-22T06:11:51.362Z,9.22
2023-04-22T06:14:19.393Z,9.29
2023-04-22T06:16:50.273Z,9.40
2023-04-22T06:19:18.267Z,9.50
2023-04-22T06:21:46.804Z,9.59
2023-04-22T06:24:14.788Z,9.65
2023-04-22T06:26:45.146Z,9.72
2023-04-22T06:29:13.149Z,9.80
2023-04-22T06:31:41.797Z,9.86
2023-04-22T06:34:09.764Z,9.93
2023-04-22T06:36:38.686Z,9.98
2023-04-22T06:39:07.756Z,10.03
2023-04-22T06:41:51.948Z,10.07
2023-04-22T06:44:44.829Z,10.13
2023-04-22T06:47:21.544Z,10.18
2023-04-22T06:50:02.511Z,10.22
2023-04-22T06:52:36.100Z,10.28
2023-04-22T06:55:04.947Z,10.33
2023-04-22T06:57:34.228Z,10.40
2023-04-22T07:00:02.841Z,10.45
2023-04-22T07:02:31.639Z,10.50
2023-04-22T07:04:59.603Z,10.56
2023-04-22T07:07:27.687Z,10.60
2023-04-22T07:09:56.110Z,10.68
2023-04-22T07:12:28.469Z,10.72
2023-04-22T07:14:58.226Z,10.80
2023-04-22T07:17:26.186Z,10.85
2023-04-22T07:19:54.276Z,10.90
2023-04-22T07:22:22.144Z,10.96
2023-04-22T07:24:50.036Z,11.04
2023-04-22T07:27:18.121Z,11.12
2023-04-22T07:29:46.061Z,11.20
2023-04-22T07:32:15.294Z,11.29
2023-04-22T07:34:43.096Z,11.35
2023-04-22T07:37:10.929Z,11.41
2023-04-22T07:39:39.474Z,11.50
2023-04-22T07:42:07.610Z,11.61
2023-04-22T07:44:37.579Z,11.67
2023-04-22T07:47:08.461Z,11.72
2023-04-22T07:49:37.992Z,11.74
2023-04-22T07:52:06.188Z,11.81
2023-04-22T07:54:33.996Z,11.88
2023-04-22T07:57:01.946Z,11.89
2023-04-22T07:59:29.810Z,11.95
2023-04-22T08:01:57.680Z,11.97
2023-04-22T08:04:25.887Z,12.04
2023-04-22T08:06:56.172Z,12.11
2023-04-22T08:09:24.085Z,12.11
2023-04-22T08:11:53.839Z,12.18
2023-04-22T08:14:21.755Z,12.20
2023-04-22T08:16:49.650Z,12.29
2023-04-22T08:19:17.532Z,12.37
2023-04-22T08:21:45.786Z,12.39
2023-04-22T08:24:15.047Z,12.45
2023-04-22T08:26:43.191Z,12.45
2023-04-22T08:29:11.265Z,12.56
2023-04-22T08:31:39.151Z,12.59
2023-04-22T08:34:07.049Z,12.67
2023-04-22T08:36:34.968Z,12.79
2023-04-22T08:39:03.401Z,12.91
2023-04-22T08:41:35.789Z,12.97
2023-04-22T08:44:04.160Z,13.06
2023-04-22T08:46:32.384Z,13.08
2023-04-22T08:49:03.616Z,13.21
2023-04-22T08:51:33.475Z,13.30
2023-04-22T08:54:01.610Z,13.42
2023-04-22T08:56:30.367Z,13.56
2023-04-22T08:58:59.985Z,13.73
2023-04-22T09:01:29.614Z,13.93
2023-04-22T09:04:00.759Z,14.06
2023-04-22T09:06:28.954Z,14.10
2023-04-22T09:08:58.979Z,14.14
2023-04-22T09:11:28.622Z,14.25
2023-04-22T09:13:56.455Z,14.37
2023-04-22T09:16:25.678Z,14.50
2023-04-22T09:18:53.744Z,14.66
2023-04-22T09:21:21.614Z,14.55
2023-04-22T09:23:51.187Z,14.66
2023-04-22T09:26:21.040Z,14.74
2023-04-22T09:28:52.718Z,14.99
2023-04-22T09:31:21.507Z,15.05
2023-04-22T09:33:53.694Z,15.09
2023-04-22T09:36:24.342Z,15.25
2023-04-22T09:38:57.226Z,15.32
2023-04-22T09:41:29.445Z,15.36
2023-04-22T09:43:58.330Z,15.39
2023-04-22T09:46:28.337Z,15.61
2023-04-22T09:48:59.761Z,15.65
2023-04-22T09:51:28.560Z,15.73
2023-04-22T09:54:04.049Z,15.81
2023-04-22T09:56:42.331Z,15.84
2023-04-22T09:59:10.500Z,15.91
2023-04-22T10:01:39.674Z,15.94
2023-04-22T10:04:09.912Z,15.97
2023-04-22T10:06:38.337Z,16.17
2023-04-22T10:09:09.331Z,16.16
2023-04-22T10:11:38.172Z,16.07
2023-04-22T10:14:06.006Z,16.29
2023-04-22T10:16:35.977Z,16.44
2023-04-22T10:19:06.586Z,16.51
2023-04-22T10:21:36.471Z,16.49
2023-04-22T10:24:05.327Z,16.56
2023-04-22T10:26:40.944Z,16.60
2023-04-22T10:29:10.764Z,16.49
2023-04-22T10:31:39.473Z,16.60
2023-04-22T10:34:13.023Z,16.74
2023-04-22T10:37:00.392Z,16.70
2023-04-22T10:39:29.782Z,16.86
2023-04-22T10:42:13.151Z,17.01
2023-04-22T10:44:49.442Z,16.93
2023-04-22T10:47:27.411Z,17.14
2023-04-22T10:50:11.853Z,17.26
2023-04-22T10:52:42.090Z,17.17
2023-04-22T10:55:10.126Z,17.21
2023-04-22T10:57:40.560Z,17.29
2023-04-22T11:00:52.992Z,17.22
2023-04-22T11:03:28.124Z,17.13
2023-04-22T11:06:14.545Z,17.39
2023-04-22T11:08:47.529Z,17.45
2023-04-22T11:11:17.587Z,17.55
2023-04-22T11:13:47.510Z,17.56
2023-04-22T11:16:15.434Z,17.73
2023-04-22T11:18:47.728Z,17.77
2023-04-22T11:21:15.606Z,17.77
2023-04-22T11:23:52.921Z,17.86
2023-04-22T11:26:34.759Z,18.00
2023-04-22T11:29:02.645Z,18.06
2023-04-22T11:31:30.664Z,17.95
2023-04-22T11:34:00.133Z,18.15
2023-04-22T11:36:28.792Z,18.24
2023-04-22T11:38:58.316Z,18.34
2023-04-22T11:41:26.155Z,17.77
2023-04-22T11:43:54.862Z,18.06
2023-04-22T11:46:29.675Z,18.16
2023-04-22T11:49:12.678Z,18.40
2023-04-22T11:51:53.533Z,18.34
2023-04-22T11:54:35.659Z,18.27
2023-04-22T11:57:05.053Z,18.54
2023-04-22T11:59:33.357Z,18.46
2023-04-22T12:02:05.639Z,18.49
2023-04-22T12:04:37.452Z,18.59
2023-04-22T12:07:05.685Z,18.52
2023-04-22T12:09:36.056Z,18.47
2023-04-22T12:12:04.909Z,18.63
2023-04-22T12:14:33.801Z,18.75
2023-04-22T12:17:04.655Z,18.83
2023-04-22T12:19:32.727Z,18.93
2023-04-22T12:22:01.043Z,18.96
2023-04-22T12:24:29.847Z,18.96
2023-04-22T12:26:59.654Z,19.09
2023-04-22T12:29:29.122Z,19.15
2023-04-22T12:31:56.956Z,19.09
2023-04-22T12:34:24.838Z,19.11
2023-04-22T12:36:52.791Z,19.07
2023-04-22T12:39:20.639Z,18.91
2023-04-22T12:41:51.055Z,18.83
2023-04-22T12:44:20.270Z,18.88
2023-04-22T12:46:48.217Z,18.81
2023-04-22T12:49:16.180Z,18.80
2023-04-22T12:51:44.151Z,18.76
2023-04-22T12:54:11.920Z,18.73
2023-04-22T12:56:39.956Z,18.75
2023-04-22T12:59:07.786Z,18.64
2023-04-22T13:01:36.983Z,18.61
2023-04-22T13:04:05.051Z,18.55
2023-04-22T13:06:33.545Z,18.50
2023-04-22T13:09:01.400Z,18.47
2023-04-22T13:11:29.277Z,18.48
2023-04-22T13:13:57.647Z,18.50
2023-04-22T13:16:25.551Z,18.49
2023-04-22T13:18:54.709Z,18.50
2023-04-22T13:21:22.582Z,18.46
2023-04-22T13:23:50.402Z,18.43
2023-04-22T13:26:18.901Z,18.39
2023-04-22T13:28:46.750Z,18.39
2023-04-22T13:31:14.735Z,18.34
2023-04-22T13:33:44.140Z,18.29
2023-04-22T13:36:13.429Z,18.23
2023-04-22T13:38:41.208Z,18.21
2023-04-22T13:41:09.037Z,18.17
2023-04-22T13:43:36.891Z,18.13
2023-04-22T13:46:04.977Z,18.09
2023-04-22T13:48:32.844Z,18.11
2023-04-22T13:51:00.873Z,18.08
2023-04-22T13:53:30.139Z,18.09
2023-04-22T13:55:57.971Z,18.11
2023-04-22T13:58:25.806Z,18.09
2023-04-22T14:00:53.744Z,18.04
2023-04-22T14:03:21.707Z,18.03
2023-04-22T14:05:50.582Z,18.02
2023-04-22T14:08:18.451Z,18.08
2023-04-22T14:10:47.662Z,18.07
2023-04-22T14:13:15.627Z,18.11
2023-04-22T14:15:43.660Z,18.11
2023-04-22T14:18:12.697Z,18.10
2023-04-22T14:20:41.221Z,18.14
2023-04-22T14:23:09.015Z,18.13
2023-04-22T14:25:36.926Z,18.10
2023-04-22T14:28:06.802Z,18.15
2023-04-22T14:30:35.007Z,18.22
2023-04-22T14:33:06.892Z,18.29
2023-04-22T14:35:34.901Z,18.35
2023-04-22T14:38:03.437Z,18.41
2023-04-22T14:40:31.507Z,18.46
2023-04-22T14:43:01.307Z,18.53
2023-04-22T14:45:31.762Z,18.42
2023-04-22T14:48:00.219Z,18.36
2023-04-22T14:50:28.633Z,18.30
2023-04-22T14:52:57.123Z,18.23
2023-04-22T14:55:25.074Z,18.17
2023-04-22T14:57:56.591Z,18.12
2023-04-22T15:00:25.003Z,18.05
2023-04-22T15:02:55.028Z,17.98
2023-04-22T15:05:23.699Z,18.00
2023-04-22T15:07:51.957Z,17.98
2023-04-22T15:10:20.091Z,17.98
2023-04-22T15:12:47.984Z,17.98
2023-04-22T15:15:16.750Z,17.91
2023-04-22T15:17:45.424Z,17.87
2023-04-22T15:20:15.113Z,17.82
2023-04-22T15:22:43.338Z,17.80
2023-04-22T15:25:12.113Z,17.74
2023-04-22T15:27:40.591Z,17.72
2023-04-22T15:30:10.984Z,17.69
2023-04-22T15:32:39.928Z,17.66
2023-04-22T15:35:09.321Z,17.61
2023-04-22T15:37:38.593Z,17.59
2023-04-22T15:40:07.921Z,17.58
2023-04-22T15:42:35.987Z,17.56
2023-04-22T15:45:04.140Z,17.54
2023-04-22T15:47:32.337Z,17.51
2023-04-22T15:50:06.096Z,17.46
2023-04-22T15:52:34.335Z,17.44
2023-04-22T15:55:03.533Z,17.44
2023-04-22T15:57:34.502Z,17.43
2023-04-22T16:00:11.892Z,17.44
2023-04-22T16:02:44.717Z,17.44
2023-04-22T16:05:13.971Z,17.47
2023-04-22T16:07:41.906Z,17.50
2023-04-22T16:10:12.038Z,17.52
2023-04-22T16:12:39.872Z,17.48
2023-04-22T16:15:09.358Z,17.46
2023-04-22T16:17:37.875Z,17.42
2023-04-22T16:20:07.376Z,17.39
2023-04-22T16:22:35.258Z,17.33
2023-04-22T16:25:03.235Z,17.32
2023-04-22T16:27:32.521Z,17.31
2023-04-22T16:30:00.465Z,17.27
2023-04-22T16:32:29.642Z,17.25
2023-04-22T16:34:57.697Z,17.22
2023-04-22T16:37:26.594Z,17.18
2023-04-22T16:39:54.622Z,17.13
2023-04-22T16:42:22.759Z,17.09
2023-04-22T16:44:52.395Z,17.06
2023-04-22T16:47:20.399Z,17.03
2023-04-22T16:49:48.292Z,16.99
2023-04-22T16:52:16.294Z,16.94
2023-04-22T16:54:44.170Z,16.92
2023-04-22T16:57:12.448Z,16.87
2023-04-22T16:59:40.597Z,16.84
2023-04-22T17:02:12.414Z,16.81
2023-04-22T17:04:40.444Z,16.78
2023-04-22T17:07:08.263Z,16.74
2023-04-22T17:09:36.124Z,16.71
2023-04-22T17:12:04.074Z,16.66
2023-04-22T17:14:32.121Z,16.65
2023-04-22T17:16:59.990Z,16.62
2023-04-22T17:19:29.273Z,16.57
2023-04-22T17:21:57.284Z,16.55
2023-04-22T17:24:25.309Z,16.53
2023-04-22T17:26:53.209Z,16.48
2023-04-22T17:29:21.724Z,16.46
2023-04-22T17:31:51.206Z,16.43
2023-04-22T17:34:19.116Z,16.41
2023-04-22T17:36:48.415Z,16.38
2023-04-22T17:39:16.301Z,16.34
2023-04-22T17:41:44.873Z,16.32
2023-04-22T17:44:12.726Z,16.30
2023-04-22T17:46:41.427Z,16.24
2023-04-22T17:49:09.434Z,16.14
2023-04-22T17:51:37.869Z,16.05
2023-04-22T17:54:07.279Z,15.97
2023-04-22T17:56:35.414Z,15.88
2023-04-22T17:59:03.301Z,15.79
2023-04-22T18:01:31.366Z,15.73
2023-04-22T18:03:59.895Z,15.64
2023-04-22T18:06:28.953Z,15.58
2023-04-22T18:08:56.821Z,15.49
2023-04-22T18:11:27.794Z,15.44
2023-04-22T18:13:55.798Z,15.41
2023-04-22T18:16:23.727Z,15.33
2023-04-22T18:18:51.772Z,15.27
2023-04-22T18:21:20.398Z,15.20
2023-04-22T18:23:48.373Z,15.11
2023-04-22T18:26:16.265Z,15.08
2023-04-22T18:28:45.577Z,14.99
2023-04-22T18:31:13.476Z,14.97
2023-04-22T18:33:41.360Z,14.92
2023-04-22T18:36:09.450Z,14.91
2023-04-22T18:38:38.668Z,14.78
2023-04-22T18:41:06.818Z,14.80
2023-04-22T18:43:34.709Z,14.75
2023-04-22T18:46:03.977Z,14.72
2023-04-22T18:48:32.275Z,14.66
2023-04-22T18:51:00.184Z,14.65
2023-04-22T18:53:28.162Z,14.61
2023-04-22T18:55:56.036Z,14.49
2023-04-22T18:58:24.403Z,14.49
2023-04-22T19:00:52.895Z,14.44
2023-04-22T19:03:22.373Z,14.43
2023-04-22T19:05:51.175Z,14.37
2023-04-22T19:08:19.074Z,14.36
2023-04-22T19:10:47.020Z,14.29
2023-04-22T19:13:28.629Z,14.25
2023-04-22T19:15:58.250Z,14.15
2023-04-22T19:18:27.595Z,14.17
2023-04-22T19:20:55.532Z,14.15
2023-04-22T19:23:23.413Z,14.10
2023-04-22T19:25:51.587Z,14.06
2023-04-22T19:28:19.444Z,14.01
2023-04-22T19:30:47.300Z,14.00
2023-04-22T19:33:15.591Z,14.02
2023-04-22T19:35:45.062Z,13.96
2023-04-22T19:38:16.310Z,13.98
2023-04-22T19:40:44.485Z,13.94
2023-04-22T19:43:12.336Z,13.92
2023-04-22T19:45:40.174Z,13.93
2023-04-22T19:48:09.003Z,13.87
2023-04-22T19:50:37.085Z,13.87
2023-04-22T19:53:07.509Z,13.85
2023-04-22T19:55:36.197Z,13.87
2023-04-22T19:58:04.180Z,13.83
2023-04-22T20:00:33.207Z,13.79
2023-04-22T20:03:01.606Z,13.73
2023-04-22T20:05:30.156Z,13.72
2023-04-22T20:07:59.070Z,13.71
2023-04-22T20:10:29.588Z,13.67
2023-04-22T20:12:57.714Z,13.69
2023-04-22T20:15:26.032Z,13.63
2023-04-22T20:17:55.071Z,13.67
2023-04-22T20:20:23.876Z,13.66
2023-04-22T20:22:53.398Z,13.66
2023-04-22T20:25:23.129Z,13.66
2023-04-22T20:27:53.019Z,13.63
2023-04-22T20:30:21.312Z,13.64
2023-04-22T20:32:49.445Z,13.60
2023-04-22T20:35:17.704Z,13.64
2023-04-22T20:37:47.152Z,13.67
2023-04-22T20:40:15.940Z,13.62
2023-04-22T20:42:44.074Z,13.59
2023-04-22T20:45:15.730Z,13.60
2023-04-22T20:47:44.412Z,13.60
2023-04-22T20:50:13.777Z,13.59
2023-04-22T20:52:41.625Z,13.58
2023-04-22T20:55:10.377Z,13.57
2023-04-22T20:57:38.727Z,13.53
2023-04-22T21:00:08.381Z,13.53
2023-04-22T21:02:39.655Z,13.51
2023-04-22T21:05:08.663Z,13.50
2023-04-22T21:07:39.957Z,13.51
2023-04-22T21:10:09.362Z,13.51
2023-04-22T21:12:38.140Z,13.47
2023-04-22T21:15:07.394Z,13.44
2023-04-22T21:17:39.817Z,13.41
2023-04-22T21:20:10.173Z,13.41
2023-04-22T21:22:38.977Z,13.40
2023-04-22T21:25:08.244Z,13.39
2023-04-22T21:27:36.610Z,13.36
2023-04-22T21:30:06.100Z,13.35
2023-04-22T21:32:40.363Z,13.33
2023-04-22T21:35:09.971Z,13.31
2023-04-22T21:37:37.982Z,13.27
2023-04-22T21:40:12.921Z,13.26
2023-04-22T21:42:41.738Z,13.24
2023-04-22T21:45:10.080Z,13.22
2023-04-22T21:47:37.896Z,13.21
2023-04-22T21:50:06.862Z,13.15
2023-04-22T21:52:36.126Z,13.13
2023-04-22T21:55:04.527Z,13.08
2023-04-22T21:57:32.514Z,13.09
2023-04-22T22:00:00.315Z,13.08
2023-04-22T22:02:28.476Z,13.06
2023-04-22T22:04:56.434Z,13.02
2023-04-22T22:07:24.318Z,13.06
2023-04-22T22:09:53.542Z,13.04
2023-04-22T22:12:23.283Z,13.02
2023-04-22T22:14:51.339Z,13.02
2023-04-22T22:17:19.743Z,12.98
2023-04-22T22:19:48.615Z,12.98
2023-04-22T22:22:16.451Z,12.97
2023-04-22T22:24:45.458Z,12.96
2023-04-22T22:27:14.744Z,12.94
2023-04-22T22:29:42.611Z,12.92
2023-04-22T22:32:10.425Z,12.88
2023-04-22T22:34:38.480Z,12.86
2023-04-22T22:37:06.582Z,12.85
2023-04-22T22:39:34.505Z,12.85
2023-04-22T22:42:02.311Z,12.82
2023-04-22T22:44:31.517Z,12.79
2023-04-22T22:46:59.474Z,12.77
2023-04-22T22:49:27.450Z,12.76
2023-04-22T22:51:55.439Z,12.75
2023-04-22T22:54:23.405Z,12.72
2023-04-22T22:56:51.268Z,12.72
2023-04-22T22:59:19.135Z,12.69
2023-04-22T23:01:48.317Z,12.68
2023-04-22T23:04:16.360Z,12.68
2023-04-22T23:06:44.253Z,12.67
2023-04-22T23:09:12.092Z,12.68
2023-04-22T23:11:39.944Z,12.69
2023-04-22T23:14:09.579Z,12.69
2023-04-22T23:16:38.292Z,12.71
2023-04-22T23:19:07.725Z,12.71
2023-04-22T23:21:36.238Z,12.67
2023-04-22T23:24:04.679Z,12.69
2023-04-22T23:26:33.027Z,12.68
2023-04-22T23:29:01.144Z,12.67
2023-04-22T23:31:31.291Z,12.63
2023-04-22T23:34:02.559Z,12.63
2023-04-22T23:36:33.754Z,12.62
2023-04-22T23:39:01.745Z,12.59
2023-04-22T23:41:29.526Z,12.59
2023-04-22T23:43:57.564Z,12.60
2023-04-22T23:46:25.564Z,12.59
2023-04-22T23:48:53.513Z,12.55
2023-04-22T23:51:21.514Z,12.55
2023-04-22T23:53:50.822Z,12.49
2023-04-22T23:56:21.173Z,12.50
2023-04-22T23:58:49.702Z,12.48
